Flight Track Log - Related Links

Times and Time Zones

All times are in EDT time to prevent confusion due to time zone crossing. See the UAL4695 flight status page for this flight to view local times or setup timezone preferences in your user account.

Time Position Orientation Groundspeed Altitude Reporting Facility
EDT Latitude Longitude Course Direction KTS MPH feet Rate Location/Type
Sat 05:37:20 PM 32.9294 -80.0242 13° North 175 201 1,400  Level Jacksonville Center
Sat 05:38:20 PM 32.9792 -80.0128 11° North 187 215 4,200 2,400 Climbing Jacksonville Center
Sat 05:39:20 PM 33.0392 -79.9933 15° North 192 221 6,200 2,350 Climbing Jacksonville Center
Sat 05:40:00 PM 33.2803 -79.9206 North  Level FlightAware Approximate
Sat 05:40:20 PM 33.1119 -79.9736 13° North 226 260 8,900  Level Jacksonville Center
Sat 05:41:00 PM 33.3769 -79.8813 North  Level FlightAware Approximate
Sat 05:41:20 PM 33.1906 -79.9489 15° North 265 305 11,100  Level Jacksonville Center
Sat 05:42:00 PM 33.4777 -79.8588 13° North  Level FlightAware Approximate
Sat 05:42:20 PM 33.2778 -79.9261 12° North 295 339 12,800  Level Jacksonville Center
Sat 05:43:20 PM 33.3772 -79.8978 13° North 330 380 14,200 1,550 Climbing Jacksonville Center
Sat 05:44:20 PM 33.4808 -79.8694 13° North 361 415 15,900 1,600 Climbing Jacksonville Center
Sat 05:45:20 PM 33.5867 -79.8408 13° North 374 430 17,400 1,500 Climbing Jacksonville Center
Sat 05:46:20 PM 33.6944 -79.8097 14° North 384 442 18,900 1,550 Climbing Jacksonville Center
Sat 05:47:20 PM 33.8022 -79.7783 14° North 390 449 20,500 1,350 Climbing Jacksonville Center
Sat 05:48:20 PM 33.9142 -79.7469 13° North 395 455 21,600 1,000 Climbing Jacksonville Center
Sat 05:49:20 PM 34.0322 -79.7153 13° North 411 473 22,500 900 Climbing Jacksonville Center
Sat 05:50:20 PM 34.1586 -79.6781 14° North 436 502 23,400 926 Climbing Jacksonville Center
Sat 05:52:15 PM 34.4019 -79.5664 21° North 482 555 25,200 926 Climbing Washington Center
Sat 05:53:15 PM 34.5294 -79.4994 23° Northeast 492 566 26,100 950 Climbing Washington Center
Sat 05:54:15 PM 34.6567 -79.4322 23° Northeast 497 572 27,100 1,050 Climbing Washington Center
Sat 05:55:15 PM 34.7861 -79.3650 23° Northeast 497 572 28,200 1,100 Climbing Washington Center
Sat 05:56:15 PM 34.9136 -79.2950 24° Northeast 497 572 29,300 1,050 Climbing Washington Center
Sat 05:57:15 PM 35.0450 -79.2250 24° Northeast 497 572 30,300 1,050 Climbing Washington Center
Sat 05:58:15 PM 35.1747 -79.1519 25° Northeast 507 583 31,400 1,050 Climbing Washington Center
Sat 05:59:15 PM 35.3103 -79.0792 24° Northeast 507 583 32,400 1,050 Climbing Washington Center
Sat 06:00:15 PM 35.4417 -79.0083 24° Northeast 507 583 33,500 1,000 Climbing Washington Center
Sat 06:01:15 PM 35.5497 -78.9492 24° Northeast 507 583 34,400 750 Climbing Washington Center
Sat 06:02:15 PM 35.6958 -78.8708 24° Northeast 507 583 35,000 300 Climbing Washington Center
Sat 06:03:15 PM 35.8336 -78.7944 24° Northeast 518 596 35,000  Level Washington Center
Sat 06:04:15 PM 35.9756 -78.7156 24° Northeast 535 616 35,000  Level Washington Center
Sat 06:05:15 PM 36.1217 -78.6339 24° Northeast 555 639 35,000  Level Washington Center
Sat 06:06:15 PM 36.2675 -78.5519 24° Northeast 565 650 35,000  Level Washington Center
Sat 06:07:15 PM 36.4117 -78.4644 26° Northeast 571 657 35,000  Level Washington Center
Sat 06:08:15 PM 36.5517 -78.3636 30° Northeast 577 664 35,000  Level Washington Center
Sat 06:09:15 PM 36.6917 -78.2600 31° Northeast 577 664 35,000  Level Washington Center
Sat 06:10:15 PM 36.8297 -78.1556 31° Northeast 583 671 35,000  Level Washington Center
Sat 06:11:15 PM 36.9717 -78.0539 30° Northeast 583 671 35,000  Level Washington Center
Sat 06:12:15 PM 37.1133 -77.9489 31° Northeast 583 671 35,000  Level Washington Center
Sat 06:13:15 PM 37.2553 -77.8436 31° Northeast 583 671 35,000  Level Washington Center
Sat 06:14:15 PM 37.3992 -77.7356 31° Northeast 588 677 35,000  Level Washington Center
Sat 06:15:15 PM 37.5406 -77.6322 30° Northeast 588 677 35,000  Level Washington Center
Sat 06:16:15 PM 37.6842 -77.5231 31° Northeast 590 679 35,000  Level Washington Center
Sat 06:17:15 PM 37.8278 -77.4136 31° Northeast 590 679 35,000  Level Washington Center
Sat 06:18:15 PM 37.9733 -77.3039 31° Northeast 595 685 35,000  Level Washington Center
Sat 06:19:15 PM 38.1292 -77.1886 30° Northeast 595 685 35,000  Level Washington Center
Sat 06:20:15 PM 38.2597 -77.0883 31° Northeast 595 685 35,000  Level Washington Center
Sat 06:21:15 PM 38.4178 -76.9669 31° Northeast 595 685 35,000  Level Washington Center
Sat 06:22:15 PM 38.5628 -76.8556 31° Northeast 600 690 35,000  Level Washington Center
Sat 06:23:15 PM 38.7036 -76.7383 33° Northeast 600 690 35,000  Level Washington Center
Sat 06:24:15 PM 38.8319 -76.6017 40° Northeast 600 690 35,000 -250 Level Washington Center
Sat 06:25:15 PM 38.9456 -76.4669 43° Northeast 600 690 34,500 -1,850 Descending Washington Center
Sat 06:26:15 PM 39.0675 -76.3242 42° Northeast 600 690 31,300 -3,250 Descending Washington Center
Sat 06:27:15 PM 39.1892 -76.1833 42° Northeast 595 685 28,000 -2,150 Descending Washington Center
Sat 06:28:15 PM 39.3022 -76.0528 42° Northeast 570 656 27,000 -1,200 Descending Washington Center
Sat 06:29:15 PM 39.4153 -75.9219 42° Northeast 550 633 25,600 -1,000 Descending Washington Center
Sat 06:30:15 PM 39.5258 -75.7906 42° Northeast 537 618 25,000 -900 Descending Washington Center
Sat 06:31:15 PM 39.6344 -75.6617 42° Northeast 537 618 23,800 -1,950 Descending Washington Center
Sat 06:32:15 PM 39.7364 -75.5403 42° Northeast 517 595 21,100 -2,600 Descending Washington Center
Sat 06:33:15 PM 39.8364 -75.4211 42° Northeast 497 572 18,600 -2,400 Descending Washington Center
Sat 06:34:15 PM 39.9403 -75.2967 43° Northeast 478 550 16,300 -2,400 Descending Washington Center
Sat 06:35:15 PM 40.0275 -75.1850 44° Northeast 454 522 13,800 -2,250 Descending Washington Center
Sat 06:36:39 PM 40.1500 -75.0500 40° Northeast 405 466 10,900 -1,636 Descending New York TRACON
Sat 06:37:38 PM 40.2167 -74.9500 49° Northeast 339 390 9,900 -1,311 Descending New York TRACON
Sat 06:38:38 PM 40.2667 -74.8833 45° Northeast 285 328 8,300 -1,050 Descending New York TRACON
Sat 06:39:38 PM 40.3167 -74.8167 45° Northeast 276 318 7,800 -737 Descending New York TRACON
Sat 06:40:32 PM 40.3667 -74.7500 45° Northeast 267 307 6,900 -947 Descending New York TRACON
Sat 06:41:32 PM 40.4167 -74.6667 52° Northeast 278 320 6,000 -500 Descending New York TRACON
Sat 06:42:32 PM 40.5000 -74.6500 North 257 296 5,900  Descending New York TRACON
Sat 06:43:32 PM 40.5667 -74.6333 11° North 260 299 6,000 50 Climbing New York TRACON
Sat 06:44:32 PM 40.6333 -74.6167 11° North 253 291 6,000  Level New York TRACON
Sat 06:45:38 PM 40.7167 -74.5833 17° North 261 300 6,000 -333 Level New York TRACON
Sat 06:46:38 PM 40.7667 -74.5333 37° Northeast 261 300 5,300 -500 Descending New York TRACON
Sat 06:47:38 PM 40.8167 -74.4667 45° Northeast 266 306 5,000 -150 Descending New York TRACON
Sat 06:48:38 PM 40.8667 -74.4000 45° Northeast 267 307 5,000 -105 Level New York TRACON
Sat 06:49:32 PM 40.9000 -74.3167 62° Northeast 279 321 4,800 -500 Descending New York TRACON
Sat 06:50:38 PM 40.9167 -74.2000 79° East 275 316 4,000 -762 Descending New York TRACON
Sat 06:51:38 PM 40.8833 -74.1167 118° Southeast 274 315 3,200 -500 Descending New York TRACON
Sat 06:52:38 PM 40.8333 -74.0833 153° Southeast 224 258 3,000 -200 Descending New York TRACON

Login

Don't have an account? Register now (free) for customized features, flight alerts, and more!